Santa Barbara, California
Current Conditions -  °F | °C
As of 3:24 AM on Saturday 25 Oct 2014 (Local Time) from KSBA Reporting Station
Scattered Clouds Scattered Clouds  
Wind Chill: 56°   Ceiling: Unl
Heat Index: 56°   Visibility: 10mi
Dew Point: 52°   Wind: 5mph
Humidity: 87%   Direction: 50°NE
Pressure: 30"   Gusts: NA
Location:  34.42°N, 119.69°W
Report Text: KSBA 251024Z AUTO 05004KT 10SM SCT008 13/11 A3000 RMK AO2 T01330111
Loading
Personal Weather Stations






























Interactive Weather Map
Tropical Storm Tracking
New forecast layout! Learn more

10-Day Weather Forecast

Advertisements
Track Severe Weather on mobile